Time;durP1;ratioP1;P1;durP2;ratioP2;P2;SDS_P1;SDS_P2;PMS_P1;PMS_P2;Temp;Humidity;BMP_temperature;BMP_pressure;BME280_temperature;BME280_humidity;BME280_pressure;Samples;Min_cycle;Max_cycle;Signal;HPM_P1;HPM_P2
2021/08/22 00:01:52;;;;;;;9.00;6.38;;;;;;;17.28;66.28;100270.22;8404608;34;20253;-72
2021/08/22 00:06:57;;;;;;;7.55;6.40;;;;;;;17.21;66.27;100278.16;8408290;34;20469;-72
2021/08/22 00:12:00;;;;;;;9.63;6.25;;;;;;;17.18;66.11;100272.25;8421349;34;20625;-72
2021/08/22 00:17:03;;;;;;;7.28;6.22;;;;;;;17.20;65.94;100273.78;8410884;34;20237;-72
2021/08/22 00:22:10;;;;;;;8.77;6.28;;;;;;;17.36;65.18;100266.63;8407438;34;20236;-71
2021/08/22 00:27:13;;;;;;;6.95;5.65;;;;;;;17.44;65.09;100267.47;8407044;34;20555;-72
2021/08/22 00:32:16;;;;;;;9.07;5.50;;;;;;;17.55;64.79;100273.53;8408979;34;20450;-72
2021/08/22 00:37:21;;;;;;;6.93;6.22;;;;;;;17.71;64.69;100268.09;8408568;34;20604;-72
2021/08/22 00:42:25;;;;;;;8.85;5.97;;;;;;;17.81;64.20;100255.16;8409609;34;20590;-72
2021/08/22 00:47:28;;;;;;;6.95;5.40;;;;;;;17.89;64.16;100254.28;8416473;34;20411;-72
2021/08/22 00:52:35;;;;;;;7.43;5.55;;;;;;;17.91;64.46;100244.09;8414033;34;20430;-72
2021/08/22 00:57:38;;;;;;;7.18;5.15;;;;;;;17.83;64.39;100235.97;8412744;34;20150;-72
2021/08/22 01:02:46;;;;;;;7.82;5.60;;;;;;;17.76;64.66;100237.69;8410416;34;20933;-72
2021/08/22 01:08:06;;;;;;;8.05;5.32;;;;;;;17.76;64.56;100227.66;8412459;34;20189;-72
2021/08/22 01:13:16;;;;;;;6.68;5.25;;;;;;;17.75;64.67;100219.72;8415580;34;20138;-72
2021/08/22 01:18:25;;;;;;;6.60;5.15;;;;;;;17.62;64.77;100209.38;8413686;34;20418;-72
2021/08/22 01:23:29;;;;;;;9.60;5.78;;;;;;;17.58;65.09;100202.59;8413111;34;20250;-72
2021/08/22 01:28:33;;;;;;;6.93;5.20;;;;;;;17.54;65.39;100199.38;8413231;34;20421;-72
2021/08/22 01:33:39;;;;;;;7.85;5.70;;;;;;;17.56;65.21;100196.50;8413165;34;20241;-72
2021/08/22 01:38:43;;;;;;;5.82;5.10;;;;;;;17.65;65.17;100193.56;8411886;34;20241;-72
2021/08/22 01:43:47;;;;;;;5.88;4.40;;;;;;;17.67;64.62;100196.13;8413524;34;20212;-72
2021/08/22 01:48:57;;;;;;;8.30;5.43;;;;;;;16.46;70.29;100270.09;8425130;34;20160;-72
2021/08/22 01:54:03;;;;;;;11.25;6.10;;;;;;;14.74;87.11;100252.75;8425018;34;20147;-73
2021/08/22 01:59:07;;;;;;;12.85;7.78;;;;;;;14.62;89.08;100261.25;8428253;34;20620;-73
2021/08/22 02:04:18;;;;;;;11.90;7.55;;;;;;;14.82;89.31;100262.81;8431233;34;20275;-73
2021/08/22 02:09:28;;;;;;;11.32;8.00;;;;;;;15.20;90.24;100263.47;8478648;34;20150;-73
2021/08/22 02:14:33;;;;;;;12.57;7.75;;;;;;;15.33;89.91;100252.22;8487505;33;20590;-73
2021/08/22 02:19:40;;;;;;;14.50;8.05;;;;;;;15.58;90.42;100256.81;8485931;34;20544;-73
2021/08/22 02:24:43;;;;;;;0.88;0.77;;;;;;;15.45;91.78;100251.00;8487095;34;20236;-73
2021/08/22 02:29:48;;;;;;;3.10;1.20;;;;;;;15.38;91.34;100252.63;8492777;34;20225;-73
2021/08/22 02:34:52;;;;;;;0.60;0.60;;;;;;;15.42;91.62;100251.31;8492533;34;20363;-73
2021/08/22 02:39:56;;;;;;;0.50;0.50;;;;;;;15.49;91.77;100246.94;8513459;33;20367;-73
2021/08/22 02:44:59;;;;;;;2.40;1.15;;;;;;;15.59;91.24;100241.44;8486603;34;20189;-73
2021/08/22 02:50:04;;;;;;;0.73;0.73;;;;;;;15.68;91.50;100246.72;8484987;34;20561;-73
2021/08/22 02:55:09;;;;;;;4.38;2.13;;;;;;;15.60;90.99;100248.53;8487688;34;20422;-73
2021/08/22 03:00:13;;;;;;;0.98;0.98;;;;;;;15.59;91.19;100246.84;8486743;34;20185;-73
2021/08/22 03:05:17;;;;;;;1.67;1.20;;;;;;;15.50;91.56;100231.56;8494491;33;20401;-73
2021/08/22 03:10:21;;;;;;;0.90;0.90;;;;;;;15.73;91.14;100240.81;8472669;34;20411;-72
2021/08/22 03:15:24;;;;;;;0.50;0.50;;;;;;;15.58;90.39;100245.16;8471870;33;20177;-72
2021/08/22 03:20:28;;;;;;;0.93;0.93;;;;;;;15.56;90.66;100241.75;8486671;33;20308;-72
2021/08/22 03:25:32;;;;;;;0.50;0.50;;;;;;;15.65;91.03;100247.03;8478877;33;20530;-72
2021/08/22 03:30:35;;;;;;;2.33;1.33;;;;;;;15.69;90.70;100255.72;8474172;33;20157;-72
2021/08/22 03:35:39;;;;;;;1.15;1.02;;;;;;;15.64;92.99;100241.81;8484528;34;20237;-72
2021/08/22 03:40:42;;;;;;;1.67;1.58;;;;;;;15.74;93.14;100252.50;8485861;33;20551;-72
2021/08/22 03:45:45;;;;;;;1.25;1.15;;;;;;;15.91;91.53;100238.03;8488375;34;20534;-72
2021/08/22 03:50:50;;;;;;;0.55;0.55;;;;;;;15.95;91.97;100243.97;8485573;34;20431;-72
2021/08/22 03:55:53;;;;;;;1.65;1.52;;;;;;;15.91;91.07;100228.06;8482848;33;20177;-72
2021/08/22 04:00:56;;;;;;;1.83;1.10;;;;;;;15.89;91.23;100240.06;8475144;34;20207;-72
2021/08/22 04:06:01;;;;;;;1.08;1.08;;;;;;;15.82;91.43;100239.84;8466777;33;20422;-72
2021/08/22 04:11:04;;;;;;;0.80;0.80;;;;;;;15.89;91.65;100226.50;8463763;33;20261;-72
2021/08/22 04:16:07;;;;;;;4.28;1.40;;;;;;;15.88;91.04;100241.09;8463951;33;20300;-72
2021/08/22 04:21:11;;;;;;;1.50;1.23;;;;;;;15.86;90.94;100227.69;8464869;34;20178;-72
2021/08/22 04:26:14;;;;;;;0.63;0.63;;;;;;;15.78;91.08;100234.94;8484958;33;20559;-72
2021/08/22 04:31:17;;;;;;;1.05;1.00;;;;;;;15.65;90.60;100238.91;8464482;34;21183;-72
2021/08/22 04:36:22;;;;;;;1.33;1.00;;;;;;;15.57;91.43;100235.31;8466152;34;20949;-72
2021/08/22 04:41:25;;;;;;;0.65;0.65;;;;;;;15.57;91.46;100241.56;8505709;27;20219;-71
2021/08/22 04:46:28;;;;;;;1.00;1.00;;;;;;;15.60;91.03;100235.84;8483080;33;20148;-72
2021/08/22 04:51:33;;;;;;;0.75;0.75;;;;;;;15.63;91.17;100242.78;8485462;34;20421;-70
2021/08/22 04:56:40;;;;;;;0.88;0.88;;;;;;;15.58;90.93;100256.81;8486649;33;20880;-71
2021/08/22 05:01:43;;;;;;;0.82;0.82;;;;;;;15.60;90.92;100262.91;8482921;33;20685;-71
2021/08/22 05:06:47;;;;;;;3.08;2.83;;;;;;;15.58;91.02;100264.94;8470191;33;20204;-71
2021/08/22 05:11:50;;;;;;;2.45;1.45;;;;;;;15.63;90.59;100275.28;8468437;33;20477;-73
2021/08/22 05:16:53;;;;;;;2.20;1.48;;;;;;;15.65;90.37;100271.41;8468831;33;20980;-72
2021/08/22 05:21:58;;;;;;;1.95;1.85;;;;;;;15.75;90.84;100265.03;8468807;33;20424;-72
2021/08/22 05:27:01;;;;;;;2.40;0.85;;;;;;;15.85;90.93;100273.88;8467938;33;20697;-72
2021/08/22 05:32:07;;;;;;;2.40;1.00;;;;;;;15.87;90.56;100280.84;8468567;33;20431;-72
2021/08/22 05:37:12;;;;;;;1.00;1.00;;;;;;;15.93;90.44;100284.75;8470126;33;21163;-72
2021/08/22 05:42:15;;;;;;;4.20;2.40;;;;;;;15.97;90.29;100288.84;8481615;33;20177;-72
2021/08/22 05:47:20;;;;;;;1.42;0.95;;;;;;;15.95;90.58;100284.59;8481929;33;20157;-74
2021/08/22 05:52:25;;;;;;;1.52;1.52;;;;;;;15.88;90.59;100293.38;8486839;33;20511;-72
2021/08/22 05:57:28;;;;;;;1.77;1.67;;;;;;;15.92;90.52;100297.44;8487148;33;20205;-74
2021/08/22 06:02:31;;;;;;;2.75;2.42;;;;;;;15.54;91.01;100297.91;8484882;34;20236;-72
2021/08/22 06:07:35;;;;;;;1.58;1.30;;;;;;;15.74;90.89;100298.53;8487426;33;20494;-72
2021/08/22 06:12:38;;;;;;;0.70;0.70;;;;;;;15.88;90.24;100317.75;8484569;33;20818;-73
2021/08/22 06:17:41;;;;;;;2.00;1.23;;;;;;;15.98;89.86;100320.34;8482760;33;20379;-72
2021/08/22 06:22:46;;;;;;;1.30;1.20;;;;;;;16.09;89.41;100324.63;8482318;33;20416;-73
2021/08/22 06:27:53;;;;;;;1.20;1.20;;;;;;;16.09;89.38;100335.47;8480264;33;20196;-72
2021/08/22 06:32:56;;;;;;;1.75;1.10;;;;;;;16.12;89.23;100325.16;8439160;34;20158;-73
2021/08/22 06:38:00;;;;;;;1.25;1.15;;;;;;;16.25;88.50;100338.25;8410686;34;20241;-72
2021/08/22 06:43:03;;;;;;;2.35;2.15;;;;;;;16.23;87.91;100326.72;8434003;34;20519;-72
2021/08/22 06:48:06;;;;;;;2.30;2.15;;;;;;;16.45;88.02;100338.03;8410253;34;20530;-72
2021/08/22 06:53:11;;;;;;;1.85;1.38;;;;;;;16.64;88.01;100332.31;8411162;34;21061;-72
2021/08/22 06:58:14;;;;;;;2.40;1.73;;;;;;;16.67;86.71;100333.88;8408569;34;20718;-72
2021/08/22 07:03:17;;;;;;;2.03;1.85;;;;;;;16.79;85.99;100329.84;8409303;34;20504;-72
2021/08/22 07:08:22;;;;;;;3.15;1.75;;;;;;;16.91;84.94;100331.22;8410172;34;20163;-73
2021/08/22 07:13:25;;;;;;;2.10;2.00;;;;;;;16.91;84.54;100333.91;8411874;34;20430;-72
2021/08/22 07:18:28;;;;;;;3.03;2.65;;;;;;;16.85;83.74;100334.59;8443202;34;20501;-74
2021/08/22 07:23:33;;;;;;;2.25;2.00;;;;;;;16.85;83.78;100331.88;8485540;33;20515;-73
2021/08/22 07:28:36;;;;;;;4.07;2.15;;;;;;;16.89;84.23;100333.22;8478875;33;20180;-73
2021/08/22 07:33:39;;;;;;;2.53;2.33;;;;;;;16.95;82.16;100329.00;8472009;33;20205;-73
2021/08/22 07:38:43;;;;;;;3.75;1.25;;;;;;;17.19;81.65;100330.94;8472097;33;20320;-72
2021/08/22 07:43:47;;;;;;;1.98;1.50;;;;;;;17.53;79.20;100325.34;8470213;33;20420;-73
2021/08/22 07:48:49;;;;;;;3.20;2.78;;;;;;;17.86;81.47;100322.56;8470163;33;20468;-73
2021/08/22 07:53:54;;;;;;;2.95;2.08;;;;;;;17.54;79.12;100340.59;8469177;34;20507;-72
2021/08/22 07:58:57;;;;;;;1.73;1.50;;;;;;;17.68;81.25;100334.47;8470258;33;20573;-72
2021/08/22 08:04:00;;;;;;;5.47;2.13;;;;;;;17.61;79.43;100351.66;8467886;34;20943;-73
2021/08/22 08:09:05;;;;;;;1.23;1.13;;;;;;;17.73;77.67;100349.41;8468780;33;20455;-71
2021/08/22 08:14:08;;;;;;;4.85;0.77;;;;;;;18.60;75.58;100350.38;8462534;33;20158;-71
2021/08/22 08:19:11;;;;;;;7.82;2.00;;;;;;;19.01;72.66;100345.56;8468650;33;20435;-72
2021/08/22 08:24:15;;;;;;;2.30;1.90;;;;;;;19.26;70.75;100355.44;8467785;33;20886;-72
2021/08/22 08:29:18;;;;;;;4.82;1.85;;;;;;;19.32;70.17;100350.09;8464199;33;20433;-73
2021/08/22 08:34:22;;;;;;;1.80;1.30;;;;;;;18.86;71.34;100357.38;8440450;33;20480;-72
2021/08/22 08:39:26;;;;;;;1.40;1.40;;;;;;;19.51;68.45;100356.91;8401103;34;20434;-72
2021/08/22 08:44:30;;;;;;;1.42;1.30;;;;;;;19.71;66.83;100353.69;8407754;34;20445;-72
2021/08/22 08:49:34;;;;;;;1.42;1.42;;;;;;;19.44;67.88;100351.38;8450054;33;20467;-73
2021/08/22 08:54:39;;;;;;;3.42;2.28;;;;;;;19.77;67.87;100361.13;8454296;33;20412;-73
2021/08/22 08:59:42;;;;;;;1.70;1.38;;;;;;;19.76;66.33;100375.78;8412535;34;20489;-72
2021/08/22 09:04:50;;;;;;;2.78;1.90;;;;;;;19.49;67.28;100372.59;8447741;33;20564;-72
2021/08/22 09:10:59;;;;;;;1.45;1.33;;;;;;;19.66;65.91;100371.47;8425824;34;20472;-72
2021/08/22 09:17:16;;;;;;;1.40;1.40;;;;;;;18.66;68.45;100368.69;8358471;34;20190;-71
2021/08/22 09:23:01;;;;;;;3.03;2.10;;;;;;;;;;8413967;34;20460;-71
2021/08/22 09:29:15;;;;;;;5.85;1.85;;;;;;;18.31;70.20;100384.47;8421547;34;20609;-73
2021/08/22 09:41:20;;;;;;;4.50;3.13;;;;;;;18.42;72.02;100385.09;8797535;33;20565;-71
2021/08/22 09:47:27;;;;;;;2.30;2.20;;;;;;;18.67;70.15;100378.53;8717144;33;20707;-72
2021/08/22 09:53:30;;;;;;;3.22;2.97;;;;;;;19.28;69.26;100376.00;8668348;33;20203;-71
2021/08/22 09:59:24;;;;;;;2.92;2.60;;;;;;;19.82;67.45;100377.78;8716471;33;20249;-71
2021/08/22 10:05:23;;;;;;;5.07;2.92;;;;;;;19.39;68.60;100383.75;8717116;33;20148;-72
2021/08/22 10:10:28;;;;;;;2.95;1.48;;;;;;;20.24;65.95;100373.56;8716827;33;20617;-72
2021/08/22 10:15:31;;;;;;;5.85;3.17;;;;;;;20.53;62.63;100379.06;8716012;33;20458;-71
2021/08/22 10:20:43;;;;;;;2.88;2.65;;;;;;;20.81;61.99;100377.50;8717166;33;21063;-70
2021/08/22 10:25:51;;;;;;;2.88;2.67;;;;;;;21.22;61.75;100375.88;8680442;33;20458;-71
2021/08/22 10:30:54;;;;;;;4.65;2.83;;;;;;;20.37;62.11;100371.06;8691259;33;20247;-70
2021/08/22 10:36:30;;;;;;;2.78;2.58;;;;;;;21.19;61.28;100350.88;8684988;33;20210;-70
2021/08/22 10:41:36;;;;;;;5.38;1.85;;;;;;;21.67;57.99;100357.41;8741991;27;20676;-71
2021/08/22 10:46:47;;;;;;;4.53;2.45;;;;;;;21.66;56.67;100363.88;8767945;33;20171;-71
2021/08/22 10:52:22;;;;;;;7.78;2.20;;;;;;;20.87;60.42;100363.06;8755410;33;20239;-71
2021/08/22 10:57:52;;;;;;;6.90;1.88;;;;;;;21.20;57.85;100360.72;8755450;33;20225;-71
2021/08/22 11:02:56;;;;;;;1.60;1.50;;;;;;;21.12;57.96;100355.44;8676248;33;20246;-71
2021/08/22 11:08:18;;;;;;;2.38;2.17;;;;;;;20.41;60.63;100355.19;8730501;33;20148;-71
2021/08/22 11:13:21;;;;;;;2.10;1.95;;;;;;;20.37;60.97;100360.16;8755452;33;20151;-71
2021/08/22 11:18:24;;;;;;;1.75;1.65;;;;;;;20.36;61.44;100360.38;8754493;33;20225;-71
2021/08/22 11:23:29;;;;;;;1.48;1.38;;;;;;;20.38;61.55;100367.31;8754894;33;20148;-71
2021/08/22 11:28:32;;;;;;;1.33;0.98;;;;;;;20.08;62.59;100364.56;8754294;33;20666;-71
2021/08/22 11:33:35;;;;;;;1.95;1.85;;;;;;;20.69;61.47;100367.09;8754571;33;20129;-71
2021/08/22 11:38:40;;;;;;;2.15;2.05;;;;;;;21.29;59.40;100358.75;8754153;33;20151;-71
2021/08/22 11:43:54;;;;;;;9.48;6.63;;;;;;;21.56;59.15;100357.09;8646855;33;20235;-71
2021/08/22 11:48:58;;;;;;;16.05;10.40;;;;;;;23.77;50.76;100353.22;8606103;34;20272;-71
2021/08/22 11:54:03;;;;;;;12.98;8.82;;;;;;;24.21;48.41;100346.19;8602820;34;20602;-71
2021/08/22 11:59:23;;;;;;;8.88;6.32;;;;;;;22.65;50.17;100331.91;8603082;34;20666;-71
2021/08/22 12:04:27;;;;;;;15.25;12.23;;;;;;;23.62;49.07;100326.00;8603892;34;20150;-70
2021/08/22 12:09:31;;;;;;;12.40;9.85;;;;;;;23.13;49.06;100326.41;8603488;34;20621;-70
2021/08/22 12:14:34;;;;;;;11.93;10.20;;;;;;;22.58;49.64;100329.16;8577654;34;20566;-71
2021/08/22 12:19:42;;;;;;;10.85;9.57;;;;;;;22.30;49.71;100338.28;8602170;34;20239;-71
2021/08/22 12:24:48;;;;;;;11.35;8.38;;;;;;;21.64;51.31;100341.41;8601961;34;20238;-71
2021/08/22 12:30:07;;;;;;;10.73;8.85;;;;;;;22.02;51.11;100338.34;8577455;34;21420;-71
2021/08/22 12:35:11;;;;;;;9.93;8.35;;;;;;;23.42;47.82;100333.38;8601859;34;20197;-71
2021/08/22 12:40:23;;;;;;;9.57;7.22;;;;;;;24.18;44.30;100326.56;8581801;34;20197;-71
2021/08/22 12:45:27;;;;;;;8.30;7.50;;;;;;;23.47;46.48;100319.03;8572710;34;20232;-71
2021/08/22 12:50:30;;;;;;;9.45;8.45;;;;;;;23.87;46.48;100319.88;8571712;34;20251;-71
2021/08/22 12:55:34;;;;;;;9.38;7.82;;;;;;;25.08;42.90;100319.22;8573119;34;20224;-71
2021/08/22 13:00:38;;;;;;;9.05;8.15;;;;;;;24.95;44.19;100322.00;8571627;34;20185;-71
2021/08/22 13:05:41;;;;;;;8.63;7.47;;;;;;;23.88;46.48;100330.63;8573494;34;20780;-72
2021/08/22 13:10:46;;;;;;;8.52;7.70;;;;;;;23.13;47.38;100327.25;8592473;34;20173;-71
2021/08/22 13:15:49;;;;;;;9.82;8.48;;;;;;;22.65;48.68;100330.03;8600678;34;20199;-71
2021/08/22 13:20:52;;;;;;;9.38;8.48;;;;;;;22.27;50.35;100338.69;8597233;34;20213;-70
2021/08/22 13:25:56;;;;;;;9.40;8.43;;;;;;;22.98;48.45;100326.53;8580058;34;20252;-70
2021/08/22 13:31:00;;;;;;;9.77;8.82;;;;;;;24.15;46.08;100327.00;8571383;34;20165;-70
2021/08/22 13:36:04;;;;;;;9.07;8.27;;;;;;;25.99;44.50;100312.31;8571171;34;20174;-70
2021/08/22 13:41:09;;;;;;;8.98;8.18;;;;;;;26.01;42.28;100312.09;8572204;34;20145;-70
2021/08/22 13:46:12;;;;;;;9.30;8.40;;;;;;;24.08;45.72;100325.13;8571191;34;20193;-70
2021/08/22 13:51:15;;;;;;;9.80;8.80;;;;;;;23.24;47.64;100327.69;8589066;34;20188;-70
2021/08/22 13:56:20;;;;;;;9.57;8.60;;;;;;;22.86;49.70;100314.50;8601921;34;20213;-71
2021/08/22 14:01:23;;;;;;;9.45;8.55;;;;;;;24.24;46.82;100311.97;8599819;34;20191;-71
2021/08/22 14:06:26;;;;;;;10.00;9.00;;;;;;;25.69;42.24;100311.38;8575772;34;20203;-70
2021/08/22 14:11:31;;;;;;;9.57;8.52;;;;;;;24.87;43.95;100316.78;8600310;34;20641;-70
2021/08/22 14:16:34;;;;;;;10.05;9.05;;;;;;;23.37;47.43;100317.56;8599753;34;21035;-70
2021/08/22 14:21:38;;;;;;;10.43;8.95;;;;;;;24.10;45.96;100314.75;8600380;34;20189;-70
2021/08/22 14:26:42;;;;;;;8.63;7.75;;;;;;;24.73;44.89;100313.28;8604368;34;20189;-70
2021/08/22 14:31:45;;;;;;;6.82;6.22;;;;;;;25.59;44.57;100309.94;8604927;34;20183;-71
2021/08/22 14:36:48;;;;;;;7.63;6.93;;;;;;;25.61;42.68;100302.28;8603152;34;20444;-70
2021/08/22 14:41:52;;;;;;;7.50;6.80;;;;;;;25.42;43.28;100306.06;8568997;34;20452;-71
2021/08/22 14:46:56;;;;;;;7.45;6.75;;;;;;;24.54;44.35;100310.41;8605152;34;20162;-71
2021/08/22 14:51:59;;;;;;;7.55;6.82;;;;;;;23.48;47.07;100307.88;8595187;34;20350;-70
2021/08/22 14:57:04;;;;;;;7.63;6.47;;;;;;;23.06;48.80;100301.69;8615973;34;20587;-70
2021/08/22 15:02:07;;;;;;;7.03;6.32;;;;;;;23.03;48.28;100312.22;8608462;34;21073;-71
2021/08/22 15:07:11;;;;;;;7.03;6.43;;;;;;;22.86;49.14;100320.00;8606728;34;20654;-71
2021/08/22 15:12:16;;;;;;;7.05;6.40;;;;;;;22.89;49.05;100317.69;8606109;34;20623;-71
2021/08/22 15:17:19;;;;;;;7.38;6.68;;;;;;;22.65;49.88;100327.28;8605585;34;20288;-72
2021/08/22 15:22:22;;;;;;;7.40;6.65;;;;;;;22.72;49.49;100311.75;8570157;34;20193;-71
2021/08/22 15:27:27;;;;;;;6.63;5.95;;;;;;;22.60;49.65;100312.53;8605307;34;20188;-71
2021/08/22 15:32:30;;;;;;;6.85;6.25;;;;;;;22.28;50.28;100304.81;8604937;34;20568;-71
2021/08/22 15:37:34;;;;;;;7.18;6.32;;;;;;;22.67;49.91;100308.78;8604385;34;21608;-71
2021/08/22 15:42:38;;;;;;;7.10;6.38;;;;;;;22.73;49.14;100305.19;8604742;34;20195;-70
2021/08/22 15:47:42;;;;;;;7.57;6.88;;;;;;;22.71;49.84;100306.47;8603270;34;20308;-71
2021/08/22 15:52:45;;;;;;;8.30;7.50;;;;;;;22.21;51.11;100319.50;8603051;34;20572;-71
2021/08/22 15:57:49;;;;;;;8.60;7.75;;;;;;;22.49;51.06;100320.31;8558898;34;20598;-71
2021/08/22 16:02:53;;;;;;;8.25;7.50;;;;;;;22.23;51.65;100331.91;8587015;34;20185;-71
2021/08/22 16:07:56;;;;;;;8.73;7.93;;;;;;;22.32;51.41;100327.13;8601684;34;20986;-70
2021/08/22 16:13:02;;;;;;;7.78;7.05;;;;;;;22.32;51.15;100316.16;8578395;34;20724;-71
2021/08/22 16:18:05;;;;;;;9.00;7.20;;;;;;;22.29;50.82;100311.94;8601396;34;20169;-71
2021/08/22 16:23:09;;;;;;;7.70;7.00;;;;;;;21.94;51.73;100319.34;8602812;34;20264;-70
2021/08/22 16:28:13;;;;;;;8.85;6.68;;;;;;;21.67;52.62;100324.59;8602135;34;20189;-70
2021/08/22 16:33:17;;;;;;;8.50;7.70;;;;;;;21.43;53.25;100330.50;8602387;34;20126;-70
2021/08/22 16:38:20;;;;;;;7.97;7.10;;;;;;;20.78;55.05;100333.16;8600432;34;20636;-70
2021/08/22 16:43:24;;;;;;;7.72;6.88;;;;;;;20.95;55.20;100335.66;8601531;34;20771;-70
2021/08/22 16:48:27;;;;;;;7.13;6.43;;;;;;;21.03;55.60;100338.28;8600632;34;20157;-70
2021/08/22 16:53:32;;;;;;;7.78;7.00;;;;;;;21.07;55.35;100331.44;8601387;34;20145;-70
2021/08/22 16:58:37;;;;;;;9.13;7.45;;;;;;;21.19;55.14;100315.34;8600481;34;20752;-70
2021/08/22 17:03:41;;;;;;;7.90;7.10;;;;;;;21.10;55.05;100324.72;8601028;34;20185;-70
2021/08/22 17:08:44;;;;;;;7.70;7.00;;;;;;;21.00;54.25;100322.28;8601240;34;20208;-70
2021/08/22 17:13:49;;;;;;;7.72;7.03;;;;;;;20.95;55.04;100324.75;8601503;34;20181;-70
2021/08/22 17:18:52;;;;;;;7.90;7.20;;;;;;;20.60;55.60;100313.66;8600495;34;20154;-71
2021/08/22 17:23:55;;;;;;;8.25;6.72;;;;;;;20.48;56.34;100340.56;8601004;34;20699;-70
2021/08/22 17:29:01;;;;;;;7.47;6.68;;;;;;;20.18;57.02;100350.63;8599468;34;20933;-70
2021/08/22 17:34:05;;;;;;;8.13;6.78;;;;;;;20.23;57.60;100345.47;8598543;34;20149;-71
2021/08/22 17:39:07;;;;;;;7.57;6.97;;;;;;;20.26;57.53;100353.25;8600850;34;20205;-70
2021/08/22 17:44:12;;;;;;;8.50;7.70;;;;;;;20.26;57.50;100363.34;8600428;34;20254;-71
2021/08/22 17:49:15;;;;;;;7.60;6.90;;;;;;;20.39;58.62;100370.88;8601048;34;20648;-72
2021/08/22 17:54:18;;;;;;;8.05;6.90;;;;;;;20.13;59.76;100380.38;8599455;34;20180;-71
2021/08/22 17:59:23;;;;;;;7.75;6.32;;;;;;;19.94;60.78;100386.34;8590203;34;20549;-71
2021/08/22 18:04:26;;;;;;;7.57;6.88;;;;;;;19.90;61.71;100394.03;8604853;34;20639;-71
2021/08/22 18:09:29;;;;;;;7.68;6.72;;;;;;;19.88;62.36;100410.59;8605237;34;20230;-71
2021/08/22 18:14:33;;;;;;;7.40;6.70;;;;;;;19.78;62.26;100417.34;8580765;34;20303;-70
2021/08/22 18:19:37;;;;;;;7.53;6.82;;;;;;;19.65;61.56;100429.69;8605427;34;20228;-71
2021/08/22 18:24:41;;;;;;;8.20;7.40;;;;;;;19.58;61.56;100433.31;8604284;34;20287;-71
2021/08/22 18:29:46;;;;;;;7.53;6.85;;;;;;;19.63;61.69;100448.09;8604875;34;20433;-70
2021/08/22 18:34:49;;;;;;;8.05;7.25;;;;;;;19.62;63.13;100451.03;8604728;34;20324;-70
2021/08/22 18:39:53;;;;;;;7.30;6.25;;;;;;;19.53;63.68;100461.09;8604914;34;20450;-71
2021/08/22 18:44:57;;;;;;;8.85;7.47;;;;;;;19.43;63.19;100468.66;8568954;34;20201;-70
2021/08/22 18:50:00;;;;;;;7.05;6.35;;;;;;;19.10;62.53;100470.72;8604372;34;20133;-71
2021/08/22 18:55:05;;;;;;;7.57;6.88;;;;;;;18.97;62.62;100480.28;8604384;34;20153;-72
2021/08/22 19:00:11;;;;;;;7.20;6.53;;;;;;;18.83;62.94;100491.09;8581876;34;20216;-72
2021/08/22 19:05:14;;;;;;;8.05;7.18;;;;;;;18.84;63.62;100492.78;8574568;34;20454;-72
2021/08/22 19:10:17;;;;;;;6.40;5.80;;;;;;;18.77;63.14;100498.91;8573529;34;20227;-72
2021/08/22 19:15:22;;;;;;;9.52;7.57;;;;;;;18.83;62.57;100510.97;8575298;34;20185;-72
2021/08/22 19:20:26;;;;;;;7.82;6.95;;;;;;;18.92;62.67;100504.47;8557903;34;20447;-72
2021/08/22 19:25:31;;;;;;;7.53;6.90;;;;;;;19.07;63.89;100509.19;8546584;34;20180;-72
2021/08/22 19:30:35;;;;;;;8.27;7.38;;;;;;;19.16;63.48;100516.28;8523192;34;20648;-72
2021/08/22 19:35:38;;;;;;;8.85;7.95;;;;;;;19.09;62.78;100509.84;8546875;34;21030;-71
2021/08/22 19:40:41;;;;;;;8.70;7.80;;;;;;;18.92;63.32;100517.22;8546483;34;20146;-72
2021/08/22 19:45:46;;;;;;;8.50;7.60;;;;;;;18.83;64.18;100512.84;8547691;34;20182;-72
2021/08/22 19:50:49;;;;;;;7.93;7.13;;;;;;;18.66;65.02;100529.19;8555192;34;20181;-72
2021/08/22 19:55:52;;;;;;;8.30;7.50;;;;;;;18.65;64.88;100518.47;8597497;34;20188;-72
2021/08/22 20:00:56;;;;;;;8.02;6.60;;;;;;;18.70;64.74;100525.09;8566667;34;20447;-71
2021/08/22 20:06:00;;;;;;;8.07;6.82;;;;;;;18.68;65.16;100537.19;8602067;34;20189;-72
2021/08/22 20:11:04;;;;;;;8.45;6.80;;;;;;;18.64;65.83;100535.84;8602415;34;21465;-72
2021/08/22 20:16:09;;;;;;;7.72;6.40;;;;;;;18.71;66.88;100540.41;8590219;34;20146;-70
2021/08/22 20:21:12;;;;;;;8.68;7.38;;;;;;;18.45;68.68;100559.66;8533615;34;20189;-70
2021/08/22 20:26:15;;;;;;;6.60;4.30;;;;;;;17.77;71.94;100587.09;8520815;34;20196;-71
2021/08/22 20:31:19;;;;;;;3.90;2.25;;;;;;;16.47;79.52;100590.88;8545146;34;20255;-71
2021/08/22 20:36:22;;;;;;;3.33;2.00;;;;;;;15.35;85.97;100607.47;8545183;34;20150;-71
2021/08/22 20:41:26;;;;;;;2.38;1.85;;;;;;;15.14;88.46;100621.19;8545064;34;20224;-72
2021/08/22 20:46:30;;;;;;;0.55;0.55;;;;;;;15.09;89.23;100628.94;8545188;34;20173;-72
2021/08/22 20:51:33;;;;;;;0.75;0.75;;;;;;;15.07;89.86;100636.34;8545868;34;20166;-72
2021/08/22 20:56:36;;;;;;;0.52;0.38;;;;;;;14.82;91.75;100644.09;8546134;34;20683;-72
2021/08/22 21:01:41;;;;;;;0.35;0.35;;;;;;;14.67;94.18;100640.97;8545220;34;20189;-71
2021/08/22 21:06:44;;;;;;;0.20;0.20;;;;;;;14.75;93.79;100638.41;8545424;34;20666;-72
2021/08/22 21:11:48;;;;;;;0.30;0.30;;;;;;;14.91;91.49;100642.34;8520979;34;20232;-73
2021/08/22 21:17:04;;;;;;;1.00;0.55;;;;;;;15.10;90.89;100641.44;8543936;34;20190;-73
2021/08/22 21:22:07;;;;;;;0.28;0.25;;;;;;;15.21;91.32;100639.41;8544391;34;20158;-73
2021/08/22 21:27:11;;;;;;;0.82;0.82;;;;;;;15.33;90.89;100637.38;8543933;34;20229;-73
2021/08/22 21:32:15;;;;;;;0.30;0.30;;;;;;;15.44;90.91;100639.06;8544117;34;20213;-73
2021/08/22 21:37:18;;;;;;;0.13;0.13;;;;;;;15.46;90.61;100650.59;8520024;34;20189;-73
2021/08/22 21:42:21;;;;;;;0.40;0.40;;;;;;;15.42;90.26;100650.03;8546818;34;20244;-73
2021/08/22 21:47:25;;;;;;;0.17;0.17;;;;;;;15.36;90.81;100658.78;8544376;34;20196;-72
2021/08/22 21:52:28;;;;;;;0.50;0.50;;;;;;;15.28;90.53;100666.75;8544125;34;20146;-72
2021/08/22 21:57:32;;;;;;;0.30;0.30;;;;;;;15.32;90.14;100670.00;8543418;34;20712;-72
2021/08/22 22:02:36;;;;;;;0.20;0.20;;;;;;;14.81;89.57;100674.84;8543864;34;22377;-72
2021/08/22 22:07:40;;;;;;;0.50;0.50;;;;;;;14.58;90.17;100677.00;8543317;34;20184;-72
2021/08/22 22:12:43;;;;;;;0.30;0.30;;;;;;;14.50;90.49;100685.81;8543659;34;20893;-72
2021/08/22 22:17:47;;;;;;;0.45;0.45;;;;;;;14.44;90.45;100688.25;8543163;34;21482;-71
2021/08/22 22:22:51;;;;;;;0.38;0.38;;;;;;;14.42;90.72;100688.38;8543457;34;20620;-72
2021/08/22 22:27:54;;;;;;;0.13;0.13;;;;;;;14.44;90.15;100696.34;8543534;34;20620;-72
2021/08/22 22:32:59;;;;;;;0.52;0.52;;;;;;;14.41;90.15;100691.22;8542943;34;20606;-72
2021/08/22 22:38:02;;;;;;;1.65;0.40;;;;;;;14.28;90.16;100689.63;8542407;34;20415;-72
2021/08/22 22:43:05;;;;;;;0.13;0.13;;;;;;;14.33;90.10;100686.50;8543304;34;20478;-72
2021/08/22 22:48:10;;;;;;;1.02;0.98;;;;;;;14.41;90.53;100680.44;8547320;34;20508;-72
2021/08/22 22:53:13;;;;;;;0.47;0.47;;;;;;;14.34;90.34;100685.50;8524540;34;20460;-71
2021/08/22 22:58:16;;;;;;;0.65;0.65;;;;;;;14.69;90.80;100676.84;8547999;34;20502;-72
2021/08/22 23:03:20;;;;;;;0.22;0.22;;;;;;;14.82;90.70;100679.25;8548516;34;21101;-71
2021/08/22 23:08:23;;;;;;;0.20;0.20;;;;;;;14.65;90.27;100680.00;8547764;34;20208;-72
2021/08/22 23:13:26;;;;;;;0.25;0.25;;;;;;;14.72;90.25;100676.53;8547204;34;20614;-72
2021/08/22 23:18:31;;;;;;;0.45;0.45;;;;;;;14.67;90.63;100680.69;8546010;34;20742;-72
2021/08/22 23:23:58;;;;;;;0.30;0.30;;;;;;;14.85;90.62;100678.97;8546692;34;20526;-72
2021/08/22 23:29:01;;;;;;;0.25;0.25;;;;;;;14.94;90.44;100679.94;8546476;34;20204;-72
2021/08/22 23:34:06;;;;;;;0.60;0.60;;;;;;;14.99;90.60;100693.88;8546179;34;20232;-72
2021/08/22 23:39:09;;;;;;;0.28;0.28;;;;;;;15.03;90.54;100688.03;8549566;34;20189;-72
2021/08/22 23:44:12;;;;;;;0.50;0.50;;;;;;;14.95;90.11;100689.78;8545807;34;20226;-72
2021/08/22 23:49:16;;;;;;;0.20;0.20;;;;;;;14.94;90.24;100697.00;8546389;34;20186;-72